Time;durP1;ratioP1;P1;durP2;ratioP2;P2;SDS_P1;SDS_P2;PMS_P1;PMS_P2;Temp;Humidity;BMP_temperature;BMP_pressure;BME280_temperature;BME280_humidity;BME280_pressure;Samples;Min_cycle;Max_cycle;Signal;HPM_P1;HPM_P2
2022/05/04 00:01:30;;;;;;;18.83;13.07;;;;;;;11.58;63.04;100328.84;5095299;28;20038;-77
2022/05/04 00:03:55;;;;;;;24.48;13.88;;;;;;;11.51;63.35;100329.19;5095220;28;20590;-77
2022/05/04 00:06:22;;;;;;;25.45;11.63;;;;;;;11.50;63.38;100326.81;5096255;28;20043;-77
2022/05/04 00:08:49;;;;;;;21.60;10.93;;;;;;;11.44;63.09;100328.78;5096502;28;20031;-77
2022/05/04 00:11:15;;;;;;;23.92;10.93;;;;;;;11.40;62.78;100334.63;5078007;28;20123;-78
2022/05/04 00:13:41;;;;;;;19.67;9.63;;;;;;;11.33;62.70;100323.59;5094651;28;20143;-78
2022/05/04 00:16:07;;;;;;;17.80;9.63;;;;;;;11.32;62.80;100324.88;5094938;28;20114;-76
2022/05/04 00:18:34;;;;;;;17.65;8.88;;;;;;;11.25;62.21;100316.66;5096213;28;20028;-77
2022/05/04 00:20:59;;;;;;;18.70;8.73;;;;;;;11.24;62.39;100317.94;5095973;28;20024;-77
2022/05/04 00:23:25;;;;;;;13.10;8.25;;;;;;;11.23;62.76;100322.88;5094186;28;20063;-77
2022/05/04 00:25:52;;;;;;;18.77;9.38;;;;;;;11.17;62.63;100315.44;5077820;28;20473;-76
2022/05/04 00:28:17;;;;;;;13.63;8.35;;;;;;;11.18;62.51;100319.88;5094734;28;20035;-77
2022/05/04 00:30:45;;;;;;;15.70;8.70;;;;;;;11.15;62.80;100320.84;5094536;28;20020;-76
2022/05/04 00:33:10;;;;;;;19.60;8.50;;;;;;;11.11;63.11;100320.22;5095411;28;20065;-77
2022/05/04 00:35:48;;;;;;;17.50;9.48;;;;;;;11.07;63.45;100322.47;5094086;28;20043;-77
2022/05/04 00:38:14;;;;;;;14.60;8.85;;;;;;;11.00;63.47;100319.97;5094301;28;20110;-77
2022/05/04 00:40:39;;;;;;;17.75;9.63;;;;;;;10.99;63.47;100329.78;5094358;28;20107;-76
2022/05/04 00:43:18;;;;;;;19.35;8.88;;;;;;;10.94;64.14;100336.94;5093813;28;20024;-77
2022/05/04 00:45:45;;;;;;;19.40;8.55;;;;;;;10.86;63.75;100327.13;5077411;28;20028;-76
2022/05/04 00:48:10;;;;;;;18.45;9.50;;;;;;;10.87;63.69;100339.31;5094937;28;20038;-76
2022/05/04 00:50:36;;;;;;;19.40;9.15;;;;;;;10.81;64.32;100334.28;5095653;28;20032;-77
2022/05/04 00:53:02;;;;;;;18.98;10.10;;;;;;;10.79;64.59;100336.03;5094153;28;20028;-77
2022/05/04 00:55:28;;;;;;;17.50;9.38;;;;;;;10.74;64.55;100342.38;5094233;28;20172;-77
2022/05/04 01:00:39;;;;;;;14.10;9.15;;;;;;;10.60;64.99;100332.47;5095338;28;20039;-77
2022/05/04 01:03:06;;;;;;;12.60;7.82;;;;;;;10.62;63.96;100337.66;5076800;28;20028;-77
2022/05/04 01:05:32;;;;;;;15.63;9.32;;;;;;;10.65;63.84;100343.22;5095430;28;20477;-77
2022/05/04 01:07:58;;;;;;;17.58;9.05;;;;;;;10.67;64.29;100348.41;5095187;28;20031;-77
2022/05/04 01:10:25;;;;;;;12.77;8.55;;;;;;;10.65;64.70;100342.41;5093572;28;20508;-76
2022/05/04 01:12:59;;;;;;;21.73;8.85;;;;;;;10.64;64.22;100346.53;5106658;28;20039;-77
2022/05/04 01:15:26;;;;;;;12.93;9.40;;;;;;;10.61;65.16;100347.47;5096255;28;20037;-77
2022/05/04 01:17:53;;;;;;;15.27;8.98;;;;;;;10.49;65.35;100334.22;5097097;28;20036;-77
2022/05/04 01:20:19;;;;;;;17.05;8.95;;;;;;;10.57;65.07;100356.19;5114497;28;20047;-76
2022/05/04 01:22:44;;;;;;;16.25;9.05;;;;;;;10.48;65.47;100346.88;5097059;28;20385;-76
2022/05/04 01:25:11;;;;;;;14.32;8.52;;;;;;;10.50;65.67;100361.44;5080248;28;20450;-76
2022/05/04 01:27:36;;;;;;;16.33;8.30;;;;;;;10.46;65.18;100358.72;5097102;28;20028;-76
2022/05/04 01:30:04;;;;;;;17.80;8.13;;;;;;;10.44;65.06;100363.34;5115381;28;20062;-77
2022/05/04 01:32:30;;;;;;;13.25;7.60;;;;;;;10.29;64.79;100344.06;5096927;28;20041;-76
2022/05/04 01:34:55;;;;;;;14.40;7.38;;;;;;;10.39;64.88;100356.22;5115318;28;20100;-76
2022/05/04 01:37:21;;;;;;;11.13;6.72;;;;;;;10.34;64.83;100357.66;5096560;28;20031;-76
2022/05/04 01:39:48;;;;;;;15.23;8.02;;;;;;;10.35;64.83;100362.09;5114965;28;20030;-75
2022/05/04 01:42:15;;;;;;;13.38;7.53;;;;;;;10.32;64.99;100362.22;5114862;28;20047;-76
2022/05/04 01:44:44;;;;;;;15.43;8.15;;;;;;;10.30;64.71;100365.56;5096715;28;20100;-76
2022/05/04 01:47:10;;;;;;;15.48;7.90;;;;;;;10.29;64.46;100357.50;5096509;28;20032;-76
2022/05/04 01:49:37;;;;;;;17.27;7.53;;;;;;;10.28;64.38;100350.22;5079761;28;20102;-77
2022/05/04 01:52:04;;;;;;;14.40;7.85;;;;;;;10.21;65.22;100353.41;5080027;28;20085;-77
2022/05/04 01:54:31;;;;;;;16.02;7.75;;;;;;;10.15;64.95;100341.84;5096680;28;20122;-75
2022/05/04 01:56:57;;;;;;;16.20;8.45;;;;;;;10.22;64.84;100360.66;5096646;28;20027;-75
2022/05/04 01:59:24;;;;;;;12.27;7.35;;;;;;;10.24;65.45;100364.63;5096735;28;20034;-77
2022/05/04 02:01:50;;;;;;;11.50;7.40;;;;;;;10.29;64.48;100363.19;5079742;28;20450;-76
2022/05/04 02:04:18;;;;;;;15.38;7.85;;;;;;;10.38;64.90;100368.88;5096797;28;20423;-76
2022/05/04 02:06:44;;;;;;;11.77;8.07;;;;;;;10.47;64.07;100360.31;5096429;28;20031;-77
2022/05/04 02:09:10;;;;;;;12.02;7.38;;;;;;;10.54;63.76;100359.22;5096977;28;20031;-77
2022/05/04 02:11:37;;;;;;;14.10;7.82;;;;;;;10.63;63.66;100365.66;5079163;28;20123;-76
2022/05/04 02:14:03;;;;;;;14.18;7.18;;;;;;;10.70;64.04;100367.41;5079386;28;20016;-77
2022/05/04 02:16:31;;;;;;;14.32;8.07;;;;;;;10.74;63.27;100374.53;5096233;28;20038;-75
2022/05/04 02:18:57;;;;;;;13.68;7.63;;;;;;;10.75;63.48;100376.09;5096575;28;20103;-75
2022/05/04 02:21:23;;;;;;;11.45;7.65;;;;;;;10.78;63.81;100375.13;5096054;28;20544;-77
2022/05/04 02:23:50;;;;;;;13.90;7.63;;;;;;;10.84;62.80;100383.81;5096015;28;20056;-75
2022/05/04 02:26:15;;;;;;;13.70;7.28;;;;;;;10.93;64.04;100389.50;5078189;28;20024;-75
2022/05/04 02:28:43;;;;;;;13.73;8.25;;;;;;;10.98;63.62;100382.34;5096007;28;20016;-76
2022/05/04 02:31:10;;;;;;;13.73;7.47;;;;;;;11.00;63.27;100383.44;5114191;28;20099;-76
2022/05/04 02:33:35;;;;;;;18.23;7.60;;;;;;;11.07;63.27;100380.25;5079354;28;20468;-76
2022/05/04 02:38:47;;;;;;;15.18;7.95;;;;;;;11.18;62.86;100366.28;5099229;28;20096;-76
2022/05/04 02:41:13;;;;;;;11.40;7.63;;;;;;;11.21;63.01;100364.50;5096563;28;20092;-77
2022/05/04 02:43:40;;;;;;;15.48;7.38;;;;;;;11.24;62.96;100372.91;5114251;28;20020;-76
2022/05/04 02:46:18;;;;;;;12.60;7.47;;;;;;;11.27;62.21;100379.69;5114420;28;20099;-75
2022/05/04 02:48:46;;;;;;;12.75;7.38;;;;;;;11.25;62.51;100380.19;5114177;28;20036;-75
2022/05/04 02:51:19;;;;;;;12.57;7.00;;;;;;;11.23;61.86;100390.50;5079421;28;20032;-77
2022/05/04 02:53:46;;;;;;;13.10;7.70;;;;;;;11.16;62.18;100388.78;5117229;28;20098;-77
2022/05/04 02:56:15;;;;;;;14.93;7.53;;;;;;;11.05;62.06;100377.09;5117193;28;20020;-77
2022/05/04 02:58:45;;;;;;;13.25;7.43;;;;;;;11.01;63.04;100392.78;5098780;28;20476;-77
2022/05/04 03:04:02;;;;;;;11.48;7.43;;;;;;;10.82;62.41;100380.66;5117752;28;20034;-77
2022/05/04 03:06:27;;;;;;;11.55;6.85;;;;;;;10.74;62.93;100385.91;5084469;28;20089;-77
2022/05/04 03:08:54;;;;;;;12.05;7.05;;;;;;;10.72;63.63;100396.19;5119241;28;20023;-78
2022/05/04 03:14:11;;;;;;;16.27;7.68;;;;;;;10.68;63.24;100395.56;5098480;28;20046;-76
2022/05/04 03:16:39;;;;;;;9.60;6.68;;;;;;;10.69;63.05;100389.41;5096936;28;20040;-77
2022/05/04 03:19:13;;;;;;;13.43;7.60;;;;;;;10.74;64.01;100397.31;5095538;28;20058;-77
2022/05/04 03:21:39;;;;;;;14.82;7.47;;;;;;;10.72;63.50;100382.75;5114094;28;20051;-77
2022/05/04 03:24:05;;;;;;;11.63;6.88;;;;;;;10.80;63.35;100397.47;5095304;28;20436;-76
2022/05/04 03:26:31;;;;;;;16.27;7.88;;;;;;;10.79;63.02;100390.16;5078701;28;20050;-77
2022/05/04 03:28:57;;;;;;;11.30;6.57;;;;;;;10.82;63.55;100392.84;5078396;28;20091;-76
2022/05/04 03:31:24;;;;;;;13.23;7.75;;;;;;;10.87;62.87;100399.16;5095831;28;20028;-77
2022/05/04 03:33:50;;;;;;;16.45;7.18;;;;;;;10.87;62.54;100393.47;5094451;28;20035;-76
2022/05/04 03:36:16;;;;;;;14.75;7.63;;;;;;;10.83;62.73;100400.13;5094418;28;20101;-76
2022/05/04 03:38:46;;;;;;;11.32;7.28;;;;;;;10.87;63.21;100399.97;5097566;28;20464;-76
2022/05/04 03:41:13;;;;;;;12.50;7.45;;;;;;;10.87;63.30;100399.97;5099589;28;20038;-76
2022/05/04 03:43:40;;;;;;;14.73;7.72;;;;;;;10.92;63.60;100398.50;5082079;28;20047;-77
2022/05/04 03:46:23;;;;;;;13.75;7.57;;;;;;;10.99;63.70;100392.50;5117455;28;20023;-77
2022/05/04 03:48:53;;;;;;;11.73;7.03;;;;;;;11.07;64.10;100391.66;5118210;28;20455;-77
2022/05/04 03:51:20;;;;;;;13.07;7.72;;;;;;;11.17;64.29;100398.13;5082568;28;20027;-76
2022/05/04 03:54:00;;;;;;;16.10;7.35;;;;;;;11.25;64.12;100396.50;5098876;28;20063;-77
2022/05/04 03:56:26;;;;;;;12.45;7.82;;;;;;;11.34;64.19;100396.47;5099168;28;20027;-76
2022/05/04 03:58:52;;;;;;;14.27;7.93;;;;;;;11.41;63.08;100390.41;5082526;28;20035;-76
2022/05/04 04:01:18;;;;;;;13.57;7.25;;;;;;;11.60;62.85;100408.22;5082018;28;20030;-77
2022/05/04 04:03:45;;;;;;;12.60;8.13;;;;;;;11.72;61.69;100403.56;5117640;28;20069;-76
2022/05/04 04:06:11;;;;;;;14.43;8.07;;;;;;;11.81;61.48;100400.66;5116486;28;20127;-77
2022/05/04 04:08:38;;;;;;;13.00;8.35;;;;;;;11.86;60.94;100403.66;5099585;28;20023;-78
2022/05/04 04:11:04;;;;;;;12.48;6.82;;;;;;;12.00;60.77;100404.97;5117678;28;20084;-75
2022/05/04 04:13:31;;;;;;;12.70;7.70;;;;;;;12.10;60.53;100410.13;5116599;28;20071;-76
2022/05/04 04:15:57;;;;;;;14.23;7.57;;;;;;;12.27;60.72;100415.41;5115936;28;20086;-75
2022/05/04 04:18:24;;;;;;;13.10;7.18;;;;;;;12.36;60.66;100418.19;5082358;28;20541;-76
2022/05/04 04:23:39;;;;;;;11.57;7.53;;;;;;;12.47;60.77;100409.84;5074720;28;20040;-77
2022/05/04 04:26:07;;;;;;;12.07;7.93;;;;;;;12.62;60.50;100415.59;5057753;28;20028;-78
2022/05/04 04:28:34;;;;;;;12.05;7.43;;;;;;;12.74;59.58;100415.28;5041518;28;20059;-77
2022/05/04 04:30:59;;;;;;;12.15;7.70;;;;;;;12.86;59.33;100405.66;5024745;28;20074;-77
2022/05/04 04:33:27;;;;;;;13.90;7.35;;;;;;;12.96;58.35;100404.28;5057571;28;20033;-77
2022/05/04 04:35:53;;;;;;;13.30;7.43;;;;;;;13.15;57.83;100402.03;5057352;28;20044;-77
2022/05/04 04:38:20;;;;;;;13.18;7.55;;;;;;;13.26;57.16;100405.06;5057505;28;20481;-77
2022/05/04 04:40:46;;;;;;;12.50;7.88;;;;;;;13.43;56.59;100411.03;5065674;28;20043;-77
2022/05/04 04:43:14;;;;;;;14.00;7.57;;;;;;;13.54;56.49;100419.81;5095811;28;20027;-77
2022/05/04 04:45:41;;;;;;;12.25;7.75;;;;;;;13.63;56.27;100416.03;5060886;28;20434;-77
2022/05/04 04:48:06;;;;;;;10.30;6.63;;;;;;;13.65;56.00;100410.59;5095532;28;20028;-76
2022/05/04 04:50:32;;;;;;;10.75;7.60;;;;;;;13.77;56.41;100424.56;5094450;28;20038;-76
2022/05/04 04:52:58;;;;;;;11.20;7.65;;;;;;;13.83;55.87;100414.00;5094405;28;20020;-76
2022/05/04 04:55:24;;;;;;;18.10;8.43;;;;;;;13.90;55.87;100429.19;5060120;28;20114;-76
2022/05/04 04:57:50;;;;;;;12.05;7.15;;;;;;;13.97;55.32;100429.53;5094280;28;20036;-76
2022/05/04 05:00:16;;;;;;;11.68;7.43;;;;;;;14.05;55.16;100436.44;5094437;28;20026;-76
2022/05/04 05:02:44;;;;;;;13.73;7.32;;;;;;;14.13;54.75;100436.78;5093644;28;20081;-76
2022/05/04 05:05:10;;;;;;;17.48;10.00;;;;;;;14.31;54.71;100450.81;5093668;28;20468;-77
2022/05/04 05:07:37;;;;;;;14.68;7.82;;;;;;;14.36;54.32;100450.13;5075902;28;20031;-77
2022/05/04 05:10:03;;;;;;;18.65;7.97;;;;;;;14.50;53.70;100452.16;5093779;28;20042;-75
2022/05/04 05:12:29;;;;;;;12.35;7.20;;;;;;;14.65;53.60;100457.81;5083859;28;20119;-76
2022/05/04 05:17:39;;;;;;;11.93;7.43;;;;;;;15.04;51.96;100452.47;5074676;28;20384;-75
2022/05/04 05:20:07;;;;;;;10.75;7.60;;;;;;;15.07;51.55;100445.72;5074556;28;20020;-76
2022/05/04 05:22:32;;;;;;;10.63;7.68;;;;;;;15.22;51.75;100449.25;5074059;28;20039;-74
2022/05/04 05:24:57;;;;;;;13.55;7.30;;;;;;;15.30;51.18;100449.56;5073268;28;20036;-74
2022/05/04 05:27:24;;;;;;;11.07;6.50;;;;;;;15.36;50.66;100447.53;5073873;28;20029;-75
2022/05/04 05:29:50;;;;;;;13.43;7.80;;;;;;;15.47;50.19;100445.56;5074218;28;20062;-74
2022/05/04 05:32:17;;;;;;;10.00;6.80;;;;;;;15.54;49.42;100450.09;5074387;28;20035;-74
2022/05/04 05:34:44;;;;;;;12.90;7.40;;;;;;;15.66;49.16;100448.84;5074407;28;20079;-75
2022/05/04 05:37:09;;;;;;;11.52;7.53;;;;;;;15.74;49.60;100446.31;5073138;28;20024;-75
2022/05/04 05:39:36;;;;;;;12.85;7.35;;;;;;;15.84;49.24;100442.72;5036391;28;20082;-74
2022/05/04 05:42:03;;;;;;;11.35;7.60;;;;;;;15.97;48.26;100448.81;5053756;28;20028;-73
2022/05/04 05:44:30;;;;;;;12.05;7.30;;;;;;;16.06;48.56;100447.03;5035842;28;20036;-74
2022/05/04 05:46:56;;;;;;;13.50;8.23;;;;;;;15.95;48.55;100450.63;5048798;28;20070;-73
2022/05/04 05:49:23;;;;;;;16.25;9.02;;;;;;;16.00;49.15;100452.72;5071204;28;20024;-76
2022/05/04 05:51:50;;;;;;;16.75;8.05;;;;;;;16.09;48.66;100449.66;5070643;28;20127;-75
2022/05/04 05:54:17;;;;;;;13.93;7.63;;;;;;;16.23;49.19;100447.91;5073543;28;20020;-73
2022/05/04 05:56:44;;;;;;;11.35;7.10;;;;;;;16.37;48.68;100450.59;5052863;28;20032;-72
2022/05/04 05:59:12;;;;;;;13.55;7.28;;;;;;;16.49;47.83;100451.41;5035091;28;20032;-74
2022/05/04 06:01:38;;;;;;;16.17;7.95;;;;;;;16.64;47.28;100448.34;5052317;28;20049;-73
2022/05/04 06:04:04;;;;;;;8.90;7.47;;;;;;;16.65;46.88;100444.19;5050657;28;20530;-74
2022/05/04 06:06:34;;;;;;;17.48;8.52;;;;;;;16.73;46.95;100448.13;5034814;28;20378;-74
2022/05/04 06:08:59;;;;;;;14.85;8.15;;;;;;;16.89;46.62;100453.13;5037331;28;20115;-73
2022/05/04 06:11:27;;;;;;;14.05;8.30;;;;;;;17.07;46.68;100458.41;5072209;28;20115;-73
2022/05/04 06:13:54;;;;;;;13.82;8.40;;;;;;;17.32;45.97;100450.84;5071871;28;20102;-72
2022/05/04 06:16:20;;;;;;;12.88;8.43;;;;;;;17.50;45.21;100447.47;5070572;28;20029;-74
2022/05/04 06:19:08;;;;;;;15.25;8.75;;;;;;;17.61;45.71;100461.09;5053347;28;20123;-74
2022/05/04 06:21:35;;;;;;;16.27;7.72;;;;;;;17.64;44.74;100448.53;5071778;28;20039;-74
2022/05/04 06:24:13;;;;;;;12.48;7.80;;;;;;;17.83;44.90;100446.66;5071871;28;20524;-73
2022/05/04 06:26:39;;;;;;;13.00;7.45;;;;;;;18.13;44.68;100453.41;5072694;28;20021;-73
2022/05/04 06:29:07;;;;;;;13.20;7.53;;;;;;;18.37;43.71;100454.91;5057343;28;20072;-73
2022/05/04 06:34:18;;;;;;;12.65;7.32;;;;;;;18.80;43.20;100458.94;5051293;28;20040;-73
2022/05/04 06:36:45;;;;;;;12.68;7.53;;;;;;;19.51;42.20;100453.22;5051488;28;20084;-72
2022/05/04 06:39:11;;;;;;;12.25;8.32;;;;;;;20.69;38.75;100445.66;5052679;28;20075;-72
2022/05/04 06:41:39;;;;;;;13.15;8.52;;;;;;;22.01;35.83;100448.34;5034440;28;20388;-73
2022/05/04 06:44:06;;;;;;;11.18;7.75;;;;;;;23.45;33.87;100450.31;5051305;28;20041;-74
2022/05/04 06:46:32;;;;;;;12.60;9.00;;;;;;;24.67;32.88;100446.22;5051262;28;20045;-73
2022/05/04 06:48:59;;;;;;;9.20;8.05;;;;;;;25.62;29.75;100446.94;5035439;28;20029;-77
2022/05/04 06:51:25;;;;;;;11.90;8.18;;;;;;;26.80;27.81;100432.59;5034864;28;20466;-73
2022/05/04 06:53:52;;;;;;;10.57;8.73;;;;;;;27.58;27.42;100439.03;5065936;28;20024;-74
2022/05/04 06:56:18;;;;;;;13.40;9.68;;;;;;;27.67;26.15;100440.56;5051283;28;20409;-75
2022/05/04 06:58:45;;;;;;;11.93;8.73;;;;;;;28.32;24.57;100447.81;5060095;28;20044;-74
2022/05/04 07:01:11;;;;;;;11.55;8.80;;;;;;;28.16;24.40;100443.50;5071745;28;20096;-74
2022/05/04 07:03:38;;;;;;;9.85;7.65;;;;;;;28.92;24.60;100448.53;5072305;28;20070;-73
2022/05/04 07:06:06;;;;;;;10.77;7.75;;;;;;;29.88;23.94;100442.47;5060288;28;20207;-73
2022/05/04 07:08:58;;;;;;;9.90;7.82;;;;;;;30.00;22.46;100449.31;5065528;28;20135;-76
2022/05/04 07:11:24;;;;;;;12.50;8.38;;;;;;;30.10;22.10;100440.53;5072279;28;20036;-75
2022/05/04 07:13:50;;;;;;;12.77;6.82;;;;;;;30.99;23.35;100445.28;5076352;28;20506;-75
2022/05/04 07:16:15;;;;;;;8.40;7.30;;;;;;;31.74;22.57;100445.03;5095679;28;20122;-75
2022/05/04 07:18:42;;;;;;;8.52;6.07;;;;;;;32.46;21.41;100442.81;5078077;28;20043;-75
2022/05/04 07:21:08;;;;;;;8.90;6.85;;;;;;;32.65;20.21;100448.59;5096597;28;20028;-75
2022/05/04 07:23:34;;;;;;;10.82;6.75;;;;;;;32.90;18.83;100448.06;5096184;28;20508;-75
2022/05/04 07:26:03;;;;;;;9.68;7.10;;;;;;;32.97;19.90;100447.06;5096277;28;20393;-75
2022/05/04 07:28:30;;;;;;;7.70;6.18;;;;;;;32.35;20.59;100453.13;5096512;28;20035;-74
2022/05/04 07:30:56;;;;;;;8.93;6.63;;;;;;;33.39;19.90;100461.75;5095865;28;20126;-75
2022/05/04 07:33:22;;;;;;;9.38;6.53;;;;;;;33.54;20.03;100459.72;5096293;28;20028;-76
2022/05/04 07:35:48;;;;;;;8.70;6.43;;;;;;;32.14;19.13;100464.88;5077965;28;20031;-76
2022/05/04 07:38:14;;;;;;;10.60;7.20;;;;;;;32.27;20.39;100464.31;5096104;28;20044;-75
2022/05/04 07:43:23;;;;;;;8.05;6.47;;;;;;;33.51;19.82;100461.78;5080675;28;20070;-76
2022/05/04 07:49:38;;;;;;;10.13;6.95;;;;;;;34.45;18.18;100465.56;5070209;27;20548;-76
2022/05/04 07:52:05;;;;;;;8.90;6.60;;;;;;;34.57;18.30;100463.38;5070210;28;20496;-78
2022/05/04 07:54:31;;;;;;;8.68;6.40;;;;;;;35.07;17.52;100456.81;5070360;28;20113;-74
2022/05/04 07:56:58;;;;;;;8.38;6.78;;;;;;;35.34;16.76;100456.94;5068791;28;20045;-76
2022/05/04 07:59:26;;;;;;;9.05;6.97;;;;;;;35.43;17.21;100467.06;5051541;28;20561;-77
2022/05/04 08:04:36;;;;;;;9.52;6.60;;;;;;;34.39;16.55;100468.19;5069360;28;20035;-76
2022/05/04 08:07:01;;;;;;;9.10;6.87;;;;;;;34.08;17.32;100454.41;5067993;28;20112;-76
2022/05/04 08:09:27;;;;;;;8.20;6.05;;;;;;;34.57;16.54;100463.38;5066031;28;20295;-76
2022/05/04 08:11:53;;;;;;;6.43;5.53;;;;;;;35.18;17.26;100458.94;5069016;28;20482;-75
2022/05/04 08:14:20;;;;;;;8.52;6.10;;;;;;;35.40;16.22;100463.22;5066960;28;20604;-75
2022/05/04 08:16:46;;;;;;;8.25;6.63;;;;;;;35.06;16.66;100464.91;5049727;28;20116;-76
2022/05/04 08:19:12;;;;;;;6.20;5.55;;;;;;;35.06;16.94;100461.19;5049750;28;20063;-77
2022/05/04 08:21:38;;;;;;;8.23;5.97;;;;;;;34.99;16.31;100457.06;5048632;28;20029;-76
2022/05/04 08:24:05;;;;;;;7.35;6.13;;;;;;;34.66;16.60;100474.28;5048642;28;20311;-77
2022/05/04 08:26:31;;;;;;;6.55;5.72;;;;;;;34.47;16.56;100475.38;5049820;28;20083;-76
2022/05/04 08:28:56;;;;;;;6.07;5.38;;;;;;;33.62;17.64;100463.97;5060722;28;20020;-77
2022/05/04 08:31:22;;;;;;;7.93;6.80;;;;;;;33.64;18.62;100469.25;5068696;28;20040;-75
2022/05/04 08:33:51;;;;;;;8.67;5.63;;;;;;;33.73;16.73;100468.41;5062511;28;20021;-75
2022/05/04 08:36:31;;;;;;;6.85;5.53;;;;;;;33.89;16.52;100468.69;5048092;28;20429;-76
2022/05/04 08:38:58;;;;;;;6.97;5.80;;;;;;;33.94;16.71;100473.44;5049793;28;20051;-76
2022/05/04 08:41:23;;;;;;;7.60;4.72;;;;;;;33.46;16.57;100459.19;5049631;28;20104;-77
2022/05/04 08:43:53;;;;;;;7.30;5.90;;;;;;;33.83;17.20;100474.97;5048546;28;20099;-75
2022/05/04 08:46:22;;;;;;;5.50;4.60;;;;;;;34.11;17.97;100467.91;5049460;28;20134;-75
2022/05/04 08:48:49;;;;;;;7.43;4.63;;;;;;;34.04;16.16;100468.94;5048904;28;20134;-75
2022/05/04 08:51:16;;;;;;;5.43;4.53;;;;;;;33.39;16.55;100466.91;5049330;28;20018;-74
2022/05/04 08:53:44;;;;;;;6.97;4.72;;;;;;;33.85;17.40;100460.31;5031506;28;20056;-75
2022/05/04 08:56:10;;;;;;;8.60;5.45;;;;;;;34.42;16.34;100463.91;5048537;28;20035;-76
2022/05/04 08:58:37;;;;;;;6.57;5.13;;;;;;;34.60;16.60;100468.75;5048060;28;20100;-76
2022/05/04 09:01:08;;;;;;;7.40;4.72;;;;;;;34.33;15.62;100459.69;5054467;28;20033;-76
2022/05/04 09:03:34;;;;;;;7.07;4.38;;;;;;;34.05;15.44;100460.81;5075339;28;20053;-76
2022/05/04 09:06:00;;;;;;;7.43;4.57;;;;;;;33.34;16.96;100462.13;5074095;28;20460;-76
2022/05/04 11:41:20;;;;;;;8.40;5.10;;;;;;;25.41;24.80;100379.97;5090479;27;20333;-75
2022/05/04 11:43:49;;;;;;;5.65;5.05;;;;;;;25.26;24.74;100377.06;5090441;28;20118;-75
2022/05/04 11:46:15;;;;;;;10.13;5.20;;;;;;;25.22;25.05;100388.31;5090772;28;20024;-76
2022/05/04 11:48:43;;;;;;;8.27;5.53;;;;;;;24.98;24.78;100385.94;5090268;28;20036;-76
2022/05/04 11:51:10;;;;;;;5.57;4.97;;;;;;;24.89;25.36;100381.44;5090308;28;20029;-76
2022/05/04 11:53:36;;;;;;;7.15;5.13;;;;;;;24.81;25.09;100384.31;5090334;28;20020;-76
2022/05/04 11:56:05;;;;;;;8.02;5.45;;;;;;;24.28;24.65;100345.44;5090206;28;20210;-76
2022/05/04 11:58:31;;;;;;;9.48;5.90;;;;;;;24.20;26.14;100376.66;5072193;28;20051;-75
2022/05/04 12:00:58;;;;;;;5.78;4.43;;;;;;;24.17;25.91;100377.81;5090499;28;20024;-75
2022/05/04 12:03:24;;;;;;;5.97;3.88;;;;;;;24.05;26.14;100381.00;5072151;28;20035;-76
2022/05/04 12:05:50;;;;;;;5.28;4.05;;;;;;;23.93;25.90;100376.81;5090329;28;20077;-75
2022/05/04 12:08:17;;;;;;;6.63;4.45;;;;;;;23.90;25.50;100372.16;5072199;28;20385;-76
2022/05/04 12:10:43;;;;;;;6.53;5.78;;;;;;;23.89;25.14;100369.81;5055294;28;20035;-76
2022/05/04 12:13:08;;;;;;;10.93;4.72;;;;;;;23.75;26.89;100372.03;5089867;28;20032;-75
2022/05/04 12:15:34;;;;;;;5.05;3.95;;;;;;;23.77;27.96;100363.53;5090313;28;20380;-76
2022/05/04 12:18:04;;;;;;;6.88;4.20;;;;;;;23.62;27.37;100366.31;5091607;28;20060;-75
2022/05/04 12:20:31;;;;;;;4.30;3.58;;;;;;;23.60;26.38;100361.06;5056474;28;20079;-76
2022/05/04 12:22:56;;;;;;;9.20;4.40;;;;;;;23.67;25.73;100359.56;5074138;28;20163;-76
2022/05/04 12:25:23;;;;;;;5.97;3.97;;;;;;;23.84;26.11;100356.97;5090927;28;20020;-76
2022/05/04 12:27:50;;;;;;;4.68;3.20;;;;;;;24.01;25.13;100354.38;5089868;28;20032;-77
2022/05/04 12:33:08;;;;;;;3.95;3.20;;;;;;;24.17;24.92;100343.66;5094585;28;20047;-76
2022/05/04 12:35:37;;;;;;;5.65;3.60;;;;;;;24.24;24.77;100354.53;5093367;28;20028;-76
2022/05/04 12:38:04;;;;;;;3.28;2.58;;;;;;;24.26;24.20;100337.28;5109659;28;20537;-76
2022/05/04 12:40:31;;;;;;;4.70;3.05;;;;;;;24.21;23.62;100344.06;5105864;28;20048;-77
2022/05/04 12:43:01;;;;;;;6.25;4.20;;;;;;;24.20;24.70;100315.50;5061327;28;20032;-76
2022/05/04 12:45:27;;;;;;;5.22;3.20;;;;;;;24.51;23.93;100334.69;5077941;28;20027;-76
2022/05/04 12:47:54;;;;;;;3.75;3.33;;;;;;;24.60;23.51;100325.38;5096373;28;20024;-76
2022/05/04 12:50:21;;;;;;;2.83;2.50;;;;;;;24.73;23.66;100324.44;5077997;28;20365;-76
2022/05/04 12:52:48;;;;;;;5.40;3.05;;;;;;;24.89;24.02;100326.06;5077733;28;20076;-77
2022/05/04 12:55:13;;;;;;;4.55;2.95;;;;;;;24.97;23.63;100318.09;5095842;28;20035;-76
2022/05/04 12:57:39;;;;;;;3.67;3.28;;;;;;;24.96;24.24;100312.88;5096080;28;20032;-76
2022/05/04 13:00:05;;;;;;;5.15;3.13;;;;;;;24.89;24.73;100318.09;5095975;28;20031;-77
2022/05/04 13:02:30;;;;;;;3.67;3.22;;;;;;;24.79;23.87;100319.22;5096037;28;20103;-76
2022/05/04 13:04:55;;;;;;;3.75;3.08;;;;;;;24.74;25.25;100317.25;5095946;28;20532;-76
2022/05/04 13:07:21;;;;;;;3.70;3.05;;;;;;;24.71;25.15;100316.28;5095772;28;20024;-76
2022/05/04 13:09:46;;;;;;;3.70;3.10;;;;;;;24.59;25.54;100306.34;5095845;28;20020;-76
2022/05/04 13:12:13;;;;;;;4.65;2.63;;;;;;;24.55;24.67;100314.69;5096110;28;20028;-76
2022/05/04 13:14:39;;;;;;;3.63;3.05;;;;;;;24.57;24.68;100314.13;5089027;28;20122;-75
2022/05/04 13:17:07;;;;;;;4.25;3.05;;;;;;;24.57;24.92;100311.97;5061398;28;20039;-75
2022/05/04 13:19:34;;;;;;;3.28;2.95;;;;;;;24.55;25.42;100300.13;5077816;28;20060;-78
2022/05/04 13:22:00;;;;;;;3.47;2.42;;;;;;;24.56;24.34;100300.91;5077048;28;20035;-76
2022/05/04 13:24:26;;;;;;;6.95;2.67;;;;;;;24.60;25.34;100299.16;5057367;28;20392;-76
2022/05/04 13:26:53;;;;;;;3.08;2.50;;;;;;;24.69;24.56;100295.69;5075135;28;20545;-74
2022/05/04 13:29:18;;;;;;;4.80;3.13;;;;;;;24.73;25.02;100301.91;5075453;28;20020;-76
2022/05/04 13:31:43;;;;;;;3.70;3.03;;;;;;;24.66;24.57;100296.84;5040451;28;20036;-75
2022/05/04 13:34:11;;;;;;;5.97;3.10;;;;;;;24.71;26.26;100295.91;5057603;28;20043;-78
2022/05/04 13:36:37;;;;;;;5.18;3.65;;;;;;;24.65;24.93;100295.28;5060116;28;20052;-78
2022/05/04 13:39:04;;;;;;;4.95;3.22;;;;;;;24.63;24.18;100295.09;5040533;28;20036;-78
2022/05/04 13:41:30;;;;;;;7.43;3.30;;;;;;;24.55;24.20;100300.13;5075537;28;20504;-75
2022/05/04 13:43:57;;;;;;;4.35;3.20;;;;;;;24.48;23.99;100298.72;5075892;28;20400;-77
2022/05/04 13:46:25;;;;;;;5.60;3.65;;;;;;;24.44;24.26;100289.59;5081401;28;20472;-74
2022/05/04 13:48:51;;;;;;;4.65;3.03;;;;;;;24.12;23.79;100271.78;5059649;28;20032;-75
2022/05/04 13:54:01;;;;;;;3.72;3.30;;;;;;;24.01;24.65;100287.44;5059188;28;20129;-75
2022/05/04 13:56:28;;;;;;;4.80;3.33;;;;;;;23.92;24.61;100284.28;5056979;28;20056;-75
2022/05/04 13:58:53;;;;;;;4.20;3.40;;;;;;;23.80;25.41;100283.03;5057581;28;20028;-75
2022/05/04 14:01:20;;;;;;;5.13;3.40;;;;;;;23.66;25.98;100285.28;5074613;28;20047;-75
2022/05/04 14:03:48;;;;;;;6.47;3.45;;;;;;;23.60;26.02;100290.47;5057274;28;20469;-77
2022/05/04 14:06:17;;;;;;;6.45;3.38;;;;;;;23.49;25.94;100288.66;5057978;28;20029;-76
2022/05/04 14:08:42;;;;;;;4.57;3.38;;;;;;;23.47;26.52;100294.28;5057136;28;20042;-76
2022/05/04 14:11:08;;;;;;;8.55;3.38;;;;;;;23.35;26.76;100283.47;5074664;28;20028;-77
2022/05/04 14:13:34;;;;;;;5.72;3.50;;;;;;;23.43;26.62;100288.03;5056608;28;20099;-76
2022/05/04 14:16:00;;;;;;;7.63;3.40;;;;;;;23.38;26.29;100279.44;5075314;28;20074;-76
2022/05/04 14:18:31;;;;;;;6.43;4.13;;;;;;;23.33;26.74;100283.28;5066899;28;20036;-74
2022/05/04 14:21:05;;;;;;;5.40;3.83;;;;;;;23.37;26.88;100284.47;5056615;28;20111;-74
2022/05/04 14:23:32;;;;;;;5.40;3.53;;;;;;;23.55;26.57;100285.59;5039582;28;20021;-74
2022/05/04 14:26:00;;;;;;;4.50;3.50;;;;;;;23.56;25.84;100285.03;5058478;28;20055;-75